createdAt,value
2022-12-16T00:01:25.702Z,49.03
2022-12-16T00:03:55.471Z,50.30
2022-12-16T00:06:25.279Z,48.17
2022-12-16T00:08:53.807Z,45.77
2022-12-16T00:11:24.994Z,44.97
2022-12-16T00:13:53.229Z,40.87
2022-12-16T00:16:23.392Z,16.53
2022-12-16T00:18:52.098Z,44.92
2022-12-16T00:21:21.025Z,46.77
2022-12-16T00:23:49.390Z,45.30
2022-12-16T00:26:17.659Z,43.17
2022-12-16T00:28:47.637Z,46.67
2022-12-16T00:31:16.108Z,47.73
2022-12-16T00:33:44.489Z,51.77
2022-12-16T00:36:13.492Z,52.13
2022-12-16T00:38:41.804Z,50.60
2022-12-16T00:41:10.063Z,49.27
2022-12-16T00:43:38.520Z,51.50
2022-12-16T00:46:08.500Z,52.78
2022-12-16T00:48:37.071Z,55.23
2022-12-16T00:51:05.708Z,55.37
2022-12-16T00:53:34.257Z,49.13
2022-12-16T00:56:03.837Z,49.25
2022-12-16T00:58:32.059Z,49.70
2022-12-16T01:01:00.333Z,51.30
2022-12-16T01:03:30.303Z,49.80
2022-12-16T01:05:59.226Z,53.50
2022-12-16T01:08:27.942Z,48.90
2022-12-16T01:10:58.229Z,48.23
2022-12-16T01:13:28.163Z,50.03
2022-12-16T01:15:56.790Z,49.87
2022-12-16T01:18:25.082Z,45.93
2022-12-16T01:20:54.832Z,48.63
2022-12-16T01:23:23.097Z,45.97
2022-12-16T01:25:53.664Z,48.93
2022-12-16T01:28:22.036Z,46.28
2022-12-16T01:30:50.255Z,44.93
2022-12-16T01:33:18.598Z,49.67
2022-12-16T01:35:55.233Z,49.90
2022-12-16T01:38:25.817Z,48.10
2022-12-16T01:40:55.117Z,49.10
2022-12-16T01:43:26.927Z,47.90
2022-12-16T01:45:59.179Z,47.47
2022-12-16T01:48:38.767Z,47.47
2022-12-16T01:51:09.756Z,51.23
2022-12-16T01:53:40.145Z,49.47
2022-12-16T01:56:08.600Z,46.10
2022-12-16T01:58:38.814Z,48.37
2022-12-16T02:01:07.826Z,47.73
2022-12-16T02:03:37.942Z,47.08
2022-12-16T02:06:08.179Z,47.60
2022-12-16T02:08:36.804Z,47.17
2022-12-16T02:11:19.054Z,50.05
2022-12-16T02:14:00.138Z,53.30
2022-12-16T02:16:31.270Z,52.27
2022-12-16T02:19:05.549Z,53.27
2022-12-16T02:21:45.916Z,53.00
2022-12-16T02:24:46.315Z,51.30
2022-12-16T02:27:29.238Z,48.83
2022-12-16T02:30:08.303Z,52.77
2022-12-16T02:32:47.633Z,50.43
2022-12-16T02:35:21.568Z,47.80
2022-12-16T02:37:55.894Z,42.10
2022-12-16T02:40:27.344Z,49.50
2022-12-16T02:42:59.551Z,49.27
2022-12-16T02:45:30.123Z,48.67
2022-12-16T02:47:59.791Z,48.50
2022-12-16T02:50:30.741Z,49.80
2022-12-16T02:52:59.741Z,49.77
2022-12-16T02:55:34.328Z,46.50
2022-12-16T02:58:12.752Z,50.20
2022-12-16T03:00:49.446Z,47.13
2022-12-16T03:03:22.093Z,48.20
2022-12-16T03:05:52.734Z,52.45
2022-12-16T03:08:24.511Z,50.43
2022-12-16T03:10:57.592Z,54.07
2022-12-16T03:13:26.940Z,57.40
2022-12-16T03:15:56.119Z,54.35
2022-12-16T03:18:26.239Z,51.20
2022-12-16T03:20:57.146Z,48.87
2022-12-16T03:23:29.241Z,52.20
2022-12-16T03:26:01.331Z,54.53
2022-12-16T03:28:35.436Z,52.13
2022-12-16T03:31:07.292Z,53.23
2022-12-16T03:33:41.142Z,50.60
2022-12-16T03:36:12.260Z,51.77
2022-12-16T03:38:42.607Z,55.80
2022-12-16T03:41:12.186Z,52.87
2022-12-16T03:43:40.661Z,56.47
2022-12-16T03:46:09.709Z,50.70
2022-12-16T03:48:46.922Z,53.67
2022-12-16T03:51:15.997Z,55.53
2022-12-16T03:53:44.277Z,57.07
2022-12-16T03:56:12.746Z,59.75
2022-12-16T03:58:41.099Z,54.33
2022-12-16T04:01:10.602Z,53.67
2022-12-16T04:03:40.323Z,56.63
2022-12-16T04:06:09.305Z,54.75
2022-12-16T04:08:37.796Z,50.53
2022-12-16T04:11:23.706Z,54.50
2022-12-16T04:14:09.053Z,56.65
2022-12-16T04:16:54.641Z,53.27
2022-12-16T04:19:46.970Z,39.47
2022-12-16T04:22:34.009Z,45.00
2022-12-16T04:25:05.077Z,47.20
2022-12-16T04:27:33.255Z,46.17
2022-12-16T04:30:18.776Z,38.27
2022-12-16T04:33:04.734Z,52.55
2022-12-16T04:35:51.856Z,47.40
2022-12-16T04:38:37.834Z,51.10
2022-12-16T04:41:23.724Z,48.97
2022-12-16T04:44:09.804Z,51.27
2022-12-16T04:47:06.890Z,53.07
2022-12-16T04:49:52.788Z,50.20
2022-12-16T04:52:39.981Z,47.73
2022-12-16T04:55:26.509Z,52.93
2022-12-16T04:58:12.914Z,53.15
2022-12-16T05:00:58.935Z,39.80
2022-12-16T05:03:45.069Z,44.10
2022-12-16T05:06:31.472Z,45.37
2022-12-16T05:09:18.673Z,35.87
2022-12-16T05:12:04.309Z,42.67
2022-12-16T05:14:49.564Z,48.47
2022-12-16T05:17:35.630Z,46.17
2022-12-16T05:20:22.085Z,47.40
2022-12-16T05:23:08.249Z,55.70
2022-12-16T05:25:55.501Z,50.13
2022-12-16T05:28:41.126Z,48.10
2022-12-16T05:31:27.139Z,47.57
2022-12-16T05:34:13.285Z,54.17
2022-12-16T05:36:58.829Z,53.57
2022-12-16T05:39:44.299Z,52.50
2022-12-16T05:42:31.710Z,53.42
2022-12-16T05:45:17.109Z,52.57
2022-12-16T05:48:02.452Z,55.33
2022-12-16T05:50:48.087Z,62.45
2022-12-16T05:53:34.142Z,63.07
2022-12-16T05:56:20.539Z,58.53
2022-12-16T05:59:07.814Z,57.00
2022-12-16T06:01:53.450Z,60.67
2022-12-16T06:04:39.161Z,58.73
2022-12-16T06:07:25.523Z,50.27
2022-12-16T06:10:12.563Z,67.78
2022-12-16T06:12:57.949Z,59.20
2022-12-16T06:15:44.996Z,51.97
2022-12-16T06:18:30.907Z,53.25
2022-12-16T06:21:19.199Z,55.40
2022-12-16T06:24:04.581Z,57.40
2022-12-16T06:26:50.194Z,53.83
2022-12-16T06:29:35.721Z,57.50
2022-12-16T06:32:23.030Z,50.60
2022-12-16T06:35:08.666Z,54.07
2022-12-16T06:37:54.029Z,62.37
2022-12-16T06:40:44.851Z,54.57
2022-12-16T06:43:30.708Z,60.40
2022-12-16T06:46:17.369Z,52.70
2022-12-16T06:49:04.807Z,51.37
2022-12-16T06:51:50.854Z,59.40
2022-12-16T06:54:38.948Z,53.40
2022-12-16T06:57:25.226Z,56.63
2022-12-16T07:00:10.852Z,57.13
2022-12-16T07:02:56.410Z,47.97
2022-12-16T07:05:43.431Z,55.60
2022-12-16T07:08:43.494Z,49.90
2022-12-16T07:11:29.481Z,51.47
2022-12-16T07:14:17.459Z,54.77
2022-12-16T07:17:03.458Z,55.23
2022-12-16T07:19:49.074Z,56.50
2022-12-16T07:22:36.435Z,54.10
2022-12-16T07:25:22.422Z,55.83
2022-12-16T07:28:12.318Z,54.70
2022-12-16T07:31:01.784Z,59.20
2022-12-16T07:33:47.471Z,61.13
2022-12-16T07:36:32.859Z,60.50
2022-12-16T07:39:19.115Z,53.67
2022-12-16T07:42:04.628Z,59.50
2022-12-16T07:44:50.127Z,55.70
2022-12-16T07:47:35.693Z,57.10
2022-12-16T07:50:21.119Z,56.97
2022-12-16T07:53:13.162Z,53.00
2022-12-16T07:56:00.120Z,57.80
2022-12-16T07:58:46.481Z,57.90
2022-12-16T08:01:31.980Z,53.40
2022-12-16T08:04:18.038Z,58.10
2022-12-16T08:07:04.240Z,57.80
2022-12-16T08:09:49.779Z,58.90
2022-12-16T08:12:37.096Z,60.40
2022-12-16T08:15:23.718Z,65.23
2022-12-16T08:18:09.603Z,60.63
2022-12-16T08:20:55.660Z,58.33
2022-12-16T08:23:41.747Z,64.10
2022-12-16T08:26:27.752Z,61.23
2022-12-16T08:29:42.737Z,58.60
2022-12-16T08:32:20.564Z,56.27
2022-12-16T08:35:06.277Z,56.17
2022-12-16T08:37:51.934Z,55.70
2022-12-16T08:40:38.455Z,56.60
2022-12-16T08:43:23.934Z,57.53
2022-12-16T08:46:12.893Z,59.40
2022-12-16T08:48:58.664Z,54.73
2022-12-16T08:51:44.732Z,56.83
2022-12-16T08:54:30.575Z,57.83
2022-12-16T08:57:16.397Z,51.47
2022-12-16T09:00:01.873Z,52.80
2022-12-16T09:02:49.869Z,53.63
2022-12-16T09:05:36.747Z,58.33
2022-12-16T09:08:22.885Z,52.60
2022-12-16T09:11:23.327Z,55.80
2022-12-16T09:14:09.412Z,58.53
2022-12-16T09:17:10.234Z,60.90
2022-12-16T09:19:57.553Z,56.07
2022-12-16T09:22:43.168Z,57.47
2022-12-16T09:25:28.779Z,56.77
2022-12-16T09:28:14.410Z,56.50
2022-12-16T09:31:00.248Z,56.60
2022-12-16T09:33:46.946Z,55.73
2022-12-16T09:36:33.898Z,53.67
2022-12-16T09:39:21.184Z,52.03
2022-12-16T09:42:17.990Z,52.80
2022-12-16T09:45:12.377Z,51.37
2022-12-16T09:48:05.540Z,48.17
2022-12-16T09:50:51.545Z,46.77
2022-12-16T09:53:41.779Z,49.77
2022-12-16T09:56:33.476Z,52.40
2022-12-16T09:59:21.528Z,56.03
2022-12-16T10:02:09.819Z,49.50
2022-12-16T10:04:56.407Z,52.43
2022-12-16T10:07:43.226Z,54.37
2022-12-16T10:10:39.539Z,50.90
2022-12-16T10:13:32.122Z,45.63
2022-12-16T10:16:35.604Z,45.57
2022-12-16T10:19:34.338Z,45.27
2022-12-16T10:22:24.041Z,39.45
2022-12-16T10:25:15.682Z,38.53
2022-12-16T10:28:06.142Z,33.53
2022-12-16T10:30:54.652Z,31.00
2022-12-16T10:33:42.949Z,24.00
2022-12-16T10:36:33.232Z,14.40
2022-12-16T10:39:36.207Z,0.30
2022-12-16T10:42:22.423Z,0.30
2022-12-16T10:45:11.480Z,0.20
2022-12-16T10:47:57.107Z,0.30
2022-12-16T10:50:43.123Z,3.20
2022-12-16T10:53:33.575Z,0.60
2022-12-16T10:56:30.319Z,0.20
2022-12-16T10:59:19.298Z,0.20
2022-12-16T11:02:15.625Z,21.47
2022-12-16T11:05:06.899Z,0.60
2022-12-16T11:07:55.649Z,0.20
2022-12-16T11:10:47.420Z,0.20
2022-12-16T11:13:39.280Z,0.30
2022-12-16T11:16:30.914Z,0.40
2022-12-16T11:19:18.472Z,0.20
2022-12-16T11:22:05.011Z,0.30
2022-12-16T11:24:51.011Z,7.83
2022-12-16T11:27:43.026Z,0.20
2022-12-16T11:30:37.827Z,0.20
2022-12-16T11:33:33.660Z,2.30
2022-12-16T11:36:31.175Z,0.20
2022-12-16T11:39:17.235Z,0.20
2022-12-16T11:42:05.769Z,0.80
2022-12-16T11:44:54.631Z,0.30
2022-12-16T11:47:51.567Z,0.37
2022-12-16T11:50:40.326Z,0.30
2022-12-16T11:53:37.564Z,12.23
2022-12-16T11:56:24.074Z,0.20
2022-12-16T11:59:12.975Z,4.00
2022-12-16T12:02:05.067Z,0.40
2022-12-16T12:04:50.974Z,0.20
2022-12-16T12:07:46.006Z,0.20
2022-12-16T12:10:49.179Z,0.20
2022-12-16T12:13:46.973Z,0.20
2022-12-16T12:16:36.931Z,0.20
2022-12-16T12:19:27.350Z,2.87
2022-12-16T12:22:18.508Z,0.30
2022-12-16T12:25:09.767Z,0.20
2022-12-16T12:28:04.248Z,1.17
2022-12-16T12:30:53.390Z,0.30
2022-12-16T12:33:48.189Z,0.20
2022-12-16T12:36:39.671Z,0.20
2022-12-16T12:39:35.264Z,0.30
2022-12-16T12:42:31.650Z,0.20
2022-12-16T12:45:32.841Z,1.57
2022-12-16T12:48:23.869Z,0.70
2022-12-16T12:51:12.449Z,0.40
2022-12-16T12:54:05.465Z,0.20
2022-12-16T12:57:00.562Z,0.40
2022-12-16T12:59:49.634Z,30.63
2022-12-16T13:02:40.574Z,30.03
2022-12-16T13:05:30.221Z,30.20
2022-12-16T13:08:51.258Z,31.30
2022-12-16T13:11:37.497Z,28.03
2022-12-16T13:15:05.978Z,30.47
2022-12-16T13:18:38.069Z,28.17
2022-12-16T13:21:28.194Z,29.67
2022-12-16T13:24:25.109Z,31.20
2022-12-16T13:27:19.605Z,29.80
2022-12-16T13:30:19.705Z,29.10
2022-12-16T13:33:14.909Z,29.90
2022-12-16T13:36:23.487Z,31.90
2022-12-16T13:39:10.879Z,29.00
2022-12-16T13:42:18.267Z,30.13
2022-12-16T13:45:15.613Z,30.53
2022-12-16T13:48:35.521Z,31.30
2022-12-16T13:51:21.132Z,29.73
2022-12-16T13:54:08.670Z,29.83
2022-12-16T13:56:57.697Z,35.20
2022-12-16T13:59:45.688Z,33.57
2022-12-16T14:02:37.598Z,36.17
2022-12-16T14:05:33.858Z,34.77
2022-12-16T14:08:20.143Z,37.80
2022-12-16T14:11:14.139Z,35.17
2022-12-16T14:14:03.233Z,33.90
2022-12-16T14:16:57.421Z,31.23
2022-12-16T14:19:52.147Z,35.87
2022-12-16T14:23:05.193Z,37.30
2022-12-16T14:25:51.299Z,35.30
2022-12-16T14:28:42.406Z,35.03
2022-12-16T14:31:41.347Z,34.50
2022-12-16T14:34:35.068Z,34.03
2022-12-16T14:37:32.342Z,34.80
2022-12-16T14:40:20.248Z,33.93
2022-12-16T14:43:13.019Z,34.80
2022-12-16T14:46:07.896Z,35.10
2022-12-16T14:48:56.101Z,33.67
2022-12-16T14:51:44.224Z,35.60
2022-12-16T14:54:38.452Z,35.27
2022-12-16T14:57:30.463Z,34.50
2022-12-16T15:00:22.612Z,32.10
2022-12-16T15:03:09.705Z,31.03
2022-12-16T15:05:57.346Z,33.37
2022-12-16T15:08:43.315Z,33.37
2022-12-16T15:11:31.409Z,31.33
2022-12-16T15:14:33.522Z,31.47
2022-12-16T15:17:19.309Z,27.30
2022-12-16T15:20:07.681Z,29.93
2022-12-16T15:22:53.580Z,38.37
2022-12-16T15:25:41.209Z,37.30
2022-12-16T15:28:42.442Z,36.70
2022-12-16T15:31:43.328Z,34.23
2022-12-16T15:34:44.233Z,32.93
2022-12-16T15:37:41.966Z,33.40
2022-12-16T15:40:43.820Z,43.70
2022-12-16T15:43:56.129Z,42.57
2022-12-16T15:46:47.465Z,40.53
2022-12-16T15:49:39.647Z,42.03
2022-12-16T15:52:41.248Z,38.50
2022-12-16T15:55:46.280Z,41.67
2022-12-16T15:58:34.239Z,45.70
2022-12-16T16:01:21.052Z,42.73
2022-12-16T16:04:10.111Z,47.43
2022-12-16T16:06:56.614Z,42.07
2022-12-16T16:09:44.017Z,44.90
2022-12-16T16:12:31.581Z,43.30
2022-12-16T16:15:17.592Z,42.67
2022-12-16T16:18:06.010Z,43.97
2022-12-16T16:20:53.503Z,41.83
2022-12-16T16:23:39.466Z,42.73
2022-12-16T16:26:29.858Z,40.60
2022-12-16T16:29:15.427Z,41.10
2022-12-16T16:32:04.318Z,36.60
2022-12-16T16:34:51.030Z,34.77
2022-12-16T16:37:39.961Z,36.57
2022-12-16T16:40:35.917Z,37.43
2022-12-16T16:43:21.887Z,37.60
2022-12-16T16:46:11.428Z,38.40
2022-12-16T16:48:57.582Z,36.50
2022-12-16T16:51:43.791Z,35.23
2022-12-16T16:54:30.913Z,36.60
2022-12-16T16:57:18.933Z,34.23
2022-12-16T17:00:05.029Z,31.20
2022-12-16T17:02:51.088Z,33.83
2022-12-16T17:05:37.056Z,33.90
2022-12-16T17:08:23.192Z,33.80
2022-12-16T17:11:10.752Z,36.60
2022-12-16T17:13:57.831Z,32.43
2022-12-16T17:16:43.450Z,34.13
2022-12-16T17:19:31.499Z,39.10
2022-12-16T17:22:17.863Z,35.80
2022-12-16T17:25:04.173Z,32.57
2022-12-16T17:27:52.125Z,38.50
2022-12-16T17:30:45.184Z,37.67
2022-12-16T17:33:34.564Z,40.83
2022-12-16T17:36:20.880Z,39.07
2022-12-16T17:39:08.675Z,38.00
2022-12-16T17:41:54.646Z,36.03
2022-12-16T17:44:41.899Z,38.13
2022-12-16T17:47:28.091Z,39.37
2022-12-16T17:50:14.273Z,40.57
2022-12-16T17:53:00.140Z,38.00
2022-12-16T17:55:46.358Z,37.30
2022-12-16T17:58:32.462Z,38.03
2022-12-16T18:01:24.619Z,37.27
2022-12-16T18:04:14.612Z,40.57
2022-12-16T18:07:08.642Z,40.00
2022-12-16T18:09:59.316Z,37.10
2022-12-16T18:16:22.127Z,36.93
2022-12-16T18:19:12.183Z,35.27
2022-12-16T18:22:00.668Z,38.27
2022-12-16T18:24:48.668Z,39.80
2022-12-16T18:27:37.343Z,42.50
2022-12-16T18:30:28.625Z,40.67
2022-12-16T18:33:18.000Z,39.70
2022-12-16T18:36:07.287Z,40.80
2022-12-16T18:38:55.839Z,42.10
2022-12-16T18:41:43.002Z,45.77
2022-12-16T18:44:31.194Z,42.33
2022-12-16T18:47:18.178Z,43.10
2022-12-16T18:50:04.380Z,40.73
2022-12-16T18:52:56.305Z,42.87
2022-12-16T18:55:42.754Z,39.50
2022-12-16T18:58:50.178Z,38.90
2022-12-16T19:01:36.872Z,39.37
2022-12-16T19:04:25.866Z,43.30
2022-12-16T19:07:34.358Z,41.03
2022-12-16T19:10:23.250Z,42.17
2022-12-16T19:13:14.840Z,42.37
2022-12-16T19:16:25.082Z,43.67
2022-12-16T19:19:19.970Z,41.77
2022-12-16T19:22:07.354Z,44.03
2022-12-16T19:24:56.351Z,44.90
2022-12-16T19:27:46.427Z,44.70
2022-12-16T19:30:42.601Z,49.53
2022-12-16T19:33:34.712Z,41.83
2022-12-16T19:36:22.453Z,42.50
2022-12-16T19:39:09.202Z,39.43
2022-12-16T19:42:04.503Z,42.40
2022-12-16T19:45:01.821Z,46.10
2022-12-16T19:47:51.960Z,44.67
2022-12-16T19:50:43.078Z,43.80
2022-12-16T19:53:33.561Z,42.13
2022-12-16T19:56:19.786Z,43.63
2022-12-16T19:59:06.578Z,42.03
2022-12-16T20:05:00.827Z,45.00
2022-12-16T20:07:48.307Z,41.83
2022-12-16T20:10:38.795Z,38.83
2022-12-16T20:13:30.130Z,43.63
2022-12-16T20:16:20.885Z,41.37
2022-12-16T20:19:15.931Z,43.33
2022-12-16T20:25:11.483Z,42.87
2022-12-16T20:27:57.636Z,44.90
2022-12-16T20:30:43.938Z,46.60
2022-12-16T20:33:32.497Z,44.53
2022-12-16T20:36:21.429Z,40.93
2022-12-16T20:39:12.838Z,42.73
2022-12-16T20:42:00.809Z,43.07
2022-12-16T20:44:48.447Z,42.70
2022-12-16T20:47:34.574Z,43.50
2022-12-16T20:50:21.270Z,44.63
2022-12-16T20:53:09.662Z,43.97
2022-12-16T20:55:56.209Z,43.63
2022-12-16T20:58:42.590Z,45.20
2022-12-16T21:01:28.972Z,47.53
2022-12-16T21:04:15.078Z,42.80
2022-12-16T21:07:16.177Z,41.10
2022-12-16T21:10:03.248Z,39.40
2022-12-16T21:12:48.952Z,39.50
2022-12-16T21:15:35.135Z,38.97
2022-12-16T21:18:22.027Z,37.50
2022-12-16T21:21:10.464Z,40.13
2022-12-16T21:23:56.716Z,41.77
2022-12-16T21:30:12.856Z,46.70
2022-12-16T21:33:00.868Z,40.58
2022-12-16T21:35:46.357Z,42.90
2022-12-16T21:38:32.325Z,43.57
2022-12-16T21:41:19.280Z,43.53
2022-12-16T21:44:10.769Z,40.50
2022-12-16T21:46:57.016Z,39.43
2022-12-16T21:49:44.766Z,37.67
2022-12-16T21:52:30.962Z,40.83
2022-12-16T21:55:19.791Z,40.22
2022-12-16T21:58:07.562Z,42.20
2022-12-16T22:00:58.831Z,45.07
2022-12-16T22:03:52.911Z,43.50
2022-12-16T22:06:42.179Z,41.07
2022-12-16T22:09:31.797Z,39.13
2022-12-16T22:12:18.655Z,45.23
2022-12-16T22:15:05.321Z,40.10
2022-12-16T22:17:58.012Z,43.00
2022-12-16T22:20:45.933Z,39.80
2022-12-16T22:23:33.947Z,41.00
2022-12-16T22:26:20.046Z,42.50
2022-12-16T22:29:12.956Z,44.87
2022-12-16T22:32:02.632Z,43.43
2022-12-16T22:34:51.219Z,46.53
2022-12-16T22:37:39.289Z,46.00
2022-12-16T22:40:29.627Z,39.63
2022-12-16T22:43:18.616Z,38.77
2022-12-16T22:46:04.666Z,41.57
2022-12-16T22:48:50.909Z,40.43
2022-12-16T22:51:40.283Z,38.93
2022-12-16T22:54:28.403Z,33.90
2022-12-16T22:57:14.064Z,35.30
2022-12-16T23:00:00.513Z,24.77
2022-12-16T23:02:46.970Z,32.37
2022-12-16T23:05:34.312Z,39.80
2022-12-16T23:08:34.530Z,38.07
2022-12-16T23:11:22.704Z,37.70
2022-12-16T23:14:08.763Z,35.83
2022-12-16T23:16:55.797Z,37.93
2022-12-16T23:19:42.413Z,37.23
2022-12-16T23:22:28.256Z,39.83
2022-12-16T23:25:15.441Z,38.50
2022-12-16T23:28:01.166Z,36.70
2022-12-16T23:30:47.071Z,38.30
2022-12-16T23:33:32.779Z,39.60
2022-12-16T23:36:18.592Z,39.87
2022-12-16T23:39:09.845Z,40.40
2022-12-16T23:41:53.382Z,42.23
2022-12-16T23:44:41.980Z,40.10
2022-12-16T23:47:27.568Z,40.47
2022-12-16T23:50:15.711Z,37.27
2022-12-16T23:53:01.761Z,39.80
2022-12-16T23:55:47.850Z,40.20
2022-12-16T23:58:34.982Z,38.60
